Terminal Aerodrome Forecast
Issued by NWS Cleveland, OH

Home | Current Version | Previous Version | Graphics & Text | Print | Product List | Glossary Off
Versions: 1 2 3 4 5 6 7 8 9 10 11 12 13 14 15 16 17 18 19

000
FTUS41 KCLE 232330
TAFERI
TAF
KERI 232330Z 2400/2424 27004KT P6SM SCT040
     FM241200 26007KT P6SM BKN030
     FM241600 29012KT P6SM BKN040
     FM242300 32011KT P6SM SCT040=

USA.gov is the U.S. government's official web portal to all federal, state and local government web resources and services.